sensor_id;sensor_type;location;lat;lon;timestamp;P1;durP1;ratioP1;P2;durP2;ratioP2
18447;SDS011;9353;50.956;6.920;2022-08-21T00:01:47;7.47;;;6.70;;
18447;SDS011;9353;50.956;6.920;2022-08-21T00:04:14;7.80;;;7.17;;
18447;SDS011;9353;50.956;6.920;2022-08-21T00:06:42;7.87;;;6.87;;
18447;SDS011;9353;50.956;6.920;2022-08-21T00:09:09;6.97;;;6.27;;
18447;SDS011;9353;50.956;6.920;2022-08-21T00:11:36;7.77;;;7.13;;
18447;SDS011;9353;50.956;6.920;2022-08-21T00:14:05;8.10;;;7.50;;
18447;SDS011;9353;50.956;6.920;2022-08-21T00:16:34;9.37;;;7.20;;
18447;SDS011;9353;50.956;6.920;2022-08-21T00:19:02;8.73;;;7.27;;
18447;SDS011;9353;50.956;6.920;2022-08-21T00:21:30;7.80;;;7.20;;
18447;SDS011;9353;50.956;6.920;2022-08-21T00:23:57;7.57;;;6.90;;
18447;SDS011;9353;50.956;6.920;2022-08-21T00:26:24;7.83;;;6.97;;
18447;SDS011;9353;50.956;6.920;2022-08-21T00:28:51;8.27;;;7.47;;
18447;SDS011;9353;50.956;6.920;2022-08-21T00:31:19;8.03;;;7.30;;
18447;SDS011;9353;50.956;6.920;2022-08-21T00:33:47;8.47;;;7.37;;
18447;SDS011;9353;50.956;6.920;2022-08-21T00:36:15;8.07;;;7.33;;
18447;SDS011;9353;50.956;6.920;2022-08-21T00:38:42;7.90;;;7.40;;
18447;SDS011;9353;50.956;6.920;2022-08-21T00:41:10;8.37;;;7.57;;
18447;SDS011;9353;50.956;6.920;2022-08-21T00:43:38;8.23;;;7.40;;
18447;SDS011;9353;50.956;6.920;2022-08-21T00:46:06;7.77;;;7.17;;
18447;SDS011;9353;50.956;6.920;2022-08-21T00:48:33;7.87;;;7.23;;
18447;SDS011;9353;50.956;6.920;2022-08-21T00:51:04;8.17;;;7.30;;
18447;SDS011;9353;50.956;6.920;2022-08-21T00:53:32;7.53;;;6.90;;
18447;SDS011;9353;50.956;6.920;2022-08-21T00:56:00;9.77;;;6.87;;
18447;SDS011;9353;50.956;6.920;2022-08-21T00:58:28;7.97;;;7.37;;
18447;SDS011;9353;50.956;6.920;2022-08-21T01:00:56;8.27;;;7.57;;
18447;SDS011;9353;50.956;6.920;2022-08-21T01:03:26;8.03;;;7.40;;
18447;SDS011;9353;50.956;6.920;2022-08-21T01:05:53;9.73;;;8.00;;
18447;SDS011;9353;50.956;6.920;2022-08-21T01:08:22;11.97;;;8.83;;
18447;SDS011;9353;50.956;6.920;2022-08-21T01:10:51;8.23;;;7.53;;
18447;SDS011;9353;50.956;6.920;2022-08-21T01:13:18;8.37;;;7.47;;
18447;SDS011;9353;50.956;6.920;2022-08-21T01:15:48;8.20;;;7.60;;
18447;SDS011;9353;50.956;6.920;2022-08-21T01:18:18;9.67;;;6.27;;
18447;SDS011;9353;50.956;6.920;2022-08-21T01:20:52;7.50;;;6.90;;
18447;SDS011;9353;50.956;6.920;2022-08-21T01:23:22;9.83;;;7.00;;
18447;SDS011;9353;50.956;6.920;2022-08-21T01:25:49;7.17;;;6.50;;
18447;SDS011;9353;50.956;6.920;2022-08-21T01:28:16;7.07;;;6.50;;
18447;SDS011;9353;50.956;6.920;2022-08-21T01:30:44;7.20;;;6.67;;
18447;SDS011;9353;50.956;6.920;2022-08-21T01:33:11;7.50;;;6.90;;
18447;SDS011;9353;50.956;6.920;2022-08-21T01:35:38;7.87;;;7.27;;
18447;SDS011;9353;50.956;6.920;2022-08-21T01:38:07;8.40;;;7.50;;
18447;SDS011;9353;50.956;6.920;2022-08-21T01:40:34;6.70;;;6.17;;
18447;SDS011;9353;50.956;6.920;2022-08-21T01:43:01;8.00;;;7.00;;
18447;SDS011;9353;50.956;6.920;2022-08-21T01:45:29;9.00;;;7.07;;
18447;SDS011;9353;50.956;6.920;2022-08-21T01:47:56;8.93;;;6.87;;
18447;SDS011;9353;50.956;6.920;2022-08-21T01:50:23;9.43;;;7.30;;
18447;SDS011;9353;50.956;6.920;2022-08-21T01:52:51;11.00;;;7.63;;
18447;SDS011;9353;50.956;6.920;2022-08-21T01:55:19;10.23;;;7.43;;
18447;SDS011;9353;50.956;6.920;2022-08-21T01:57:47;9.03;;;8.10;;
18447;SDS011;9353;50.956;6.920;2022-08-21T02:00:15;9.40;;;8.50;;
18447;SDS011;9353;50.956;6.920;2022-08-21T02:02:42;8.27;;;7.77;;
18447;SDS011;9353;50.956;6.920;2022-08-21T02:05:10;9.00;;;8.23;;
18447;SDS011;9353;50.956;6.920;2022-08-21T02:07:37;8.37;;;7.60;;
18447;SDS011;9353;50.956;6.920;2022-08-21T02:10:05;8.57;;;7.87;;
18447;SDS011;9353;50.956;6.920;2022-08-21T02:12:33;10.30;;;8.20;;
18447;SDS011;9353;50.956;6.920;2022-08-21T02:15:00;8.77;;;8.03;;
18447;SDS011;9353;50.956;6.920;2022-08-21T02:17:36;10.30;;;8.23;;
18447;SDS011;9353;50.956;6.920;2022-08-21T02:20:03;14.90;;;8.10;;
18447;SDS011;9353;50.956;6.920;2022-08-21T02:22:30;8.77;;;7.87;;
18447;SDS011;9353;50.956;6.920;2022-08-21T02:24:57;8.90;;;8.00;;
18447;SDS011;9353;50.956;6.920;2022-08-21T02:27:25;11.77;;;7.53;;
18447;SDS011;9353;50.956;6.920;2022-08-21T02:29:54;7.73;;;7.10;;
18447;SDS011;9353;50.956;6.920;2022-08-21T02:32:21;8.33;;;7.60;;
18447;SDS011;9353;50.956;6.920;2022-08-21T02:34:48;8.43;;;7.00;;
18447;SDS011;9353;50.956;6.920;2022-08-21T02:37:15;8.03;;;7.33;;
18447;SDS011;9353;50.956;6.920;2022-08-21T02:39:42;12.17;;;7.43;;
18447;SDS011;9353;50.956;6.920;2022-08-21T02:42:09;8.73;;;7.43;;
18447;SDS011;9353;50.956;6.920;2022-08-21T02:44:36;7.73;;;6.77;;
18447;SDS011;9353;50.956;6.920;2022-08-21T02:47:05;7.57;;;6.93;;
18447;SDS011;9353;50.956;6.920;2022-08-21T02:49:32;7.30;;;6.50;;
18447;SDS011;9353;50.956;6.920;2022-08-21T02:51:59;9.30;;;7.03;;
18447;SDS011;9353;50.956;6.920;2022-08-21T02:54:26;9.17;;;7.40;;
18447;SDS011;9353;50.956;6.920;2022-08-21T02:56:53;10.73;;;7.53;;
18447;SDS011;9353;50.956;6.920;2022-08-21T02:59:20;8.30;;;7.60;;
18447;SDS011;9353;50.956;6.920;2022-08-21T03:01:48;9.67;;;7.90;;
18447;SDS011;9353;50.956;6.920;2022-08-21T03:04:16;8.67;;;7.87;;
18447;SDS011;9353;50.956;6.920;2022-08-21T03:06:44;7.67;;;7.10;;
18447;SDS011;9353;50.956;6.920;2022-08-21T03:09:11;8.27;;;7.57;;
18447;SDS011;9353;50.956;6.920;2022-08-21T03:11:39;8.30;;;7.57;;
18447;SDS011;9353;50.956;6.920;2022-08-21T03:14:06;9.90;;;8.17;;
18447;SDS011;9353;50.956;6.920;2022-08-21T03:16:33;8.53;;;7.90;;
18447;SDS011;9353;50.956;6.920;2022-08-21T03:19:00;10.37;;;7.60;;
18447;SDS011;9353;50.956;6.920;2022-08-21T03:21:31;8.03;;;7.40;;
18447;SDS011;9353;50.956;6.920;2022-08-21T03:23:58;10.23;;;8.47;;
18447;SDS011;9353;50.956;6.920;2022-08-21T03:26:25;8.17;;;7.47;;
18447;SDS011;9353;50.956;6.920;2022-08-21T03:28:53;9.13;;;8.07;;
18447;SDS011;9353;50.956;6.920;2022-08-21T03:31:21;9.17;;;7.77;;
18447;SDS011;9353;50.956;6.920;2022-08-21T03:33:48;8.13;;;7.40;;
18447;SDS011;9353;50.956;6.920;2022-08-21T03:36:16;8.30;;;7.60;;
18447;SDS011;9353;50.956;6.920;2022-08-21T03:38:44;8.23;;;7.33;;
18447;SDS011;9353;50.956;6.920;2022-08-21T03:41:11;8.83;;;8.10;;
18447;SDS011;9353;50.956;6.920;2022-08-21T03:43:38;10.33;;;7.90;;
18447;SDS011;9353;50.956;6.920;2022-08-21T03:46:06;10.87;;;7.97;;
18447;SDS011;9353;50.956;6.920;2022-08-21T03:48:34;8.87;;;8.03;;
18447;SDS011;9353;50.956;6.920;2022-08-21T03:51:01;10.43;;;8.37;;
18447;SDS011;9353;50.956;6.920;2022-08-21T03:53:29;9.50;;;8.80;;
18447;SDS011;9353;50.956;6.920;2022-08-21T03:55:57;9.73;;;8.47;;
18447;SDS011;9353;50.956;6.920;2022-08-21T03:58:25;12.17;;;10.03;;
18447;SDS011;9353;50.956;6.920;2022-08-21T04:00:54;10.73;;;9.83;;
18447;SDS011;9353;50.956;6.920;2022-08-21T04:03:21;11.47;;;10.70;;
18447;SDS011;9353;50.956;6.920;2022-08-21T04:05:48;12.80;;;11.60;;
18447;SDS011;9353;50.956;6.920;2022-08-21T04:08:16;12.40;;;11.10;;
18447;SDS011;9353;50.956;6.920;2022-08-21T04:10:44;11.53;;;10.83;;
18447;SDS011;9353;50.956;6.920;2022-08-21T04:13:14;13.07;;;11.60;;
18447;SDS011;9353;50.956;6.920;2022-08-21T04:15:41;12.80;;;11.77;;
18447;SDS011;9353;50.956;6.920;2022-08-21T04:18:08;12.73;;;11.80;;
18447;SDS011;9353;50.956;6.920;2022-08-21T04:20:35;12.10;;;11.10;;
18447;SDS011;9353;50.956;6.920;2022-08-21T04:23:03;11.60;;;10.67;;
18447;SDS011;9353;50.956;6.920;2022-08-21T04:25:30;10.77;;;9.90;;
18447;SDS011;9353;50.956;6.920;2022-08-21T04:27:57;11.23;;;10.23;;
18447;SDS011;9353;50.956;6.920;2022-08-21T04:30:26;12.07;;;10.37;;
18447;SDS011;9353;50.956;6.920;2022-08-21T04:32:53;11.63;;;10.73;;
18447;SDS011;9353;50.956;6.920;2022-08-21T04:35:21;11.30;;;10.27;;
18447;SDS011;9353;50.956;6.920;2022-08-21T04:37:49;11.40;;;10.30;;
18447;SDS011;9353;50.956;6.920;2022-08-21T04:40:17;11.50;;;10.47;;
18447;SDS011;9353;50.956;6.920;2022-08-21T04:42:45;11.47;;;10.40;;
18447;SDS011;9353;50.956;6.920;2022-08-21T04:45:18;10.50;;;9.50;;
18447;SDS011;9353;50.956;6.920;2022-08-21T04:47:48;11.00;;;9.97;;
18447;SDS011;9353;50.956;6.920;2022-08-21T04:50:16;10.17;;;9.47;;
18447;SDS011;9353;50.956;6.920;2022-08-21T04:52:43;10.47;;;9.50;;
18447;SDS011;9353;50.956;6.920;2022-08-21T04:55:10;9.83;;;9.13;;
18447;SDS011;9353;50.956;6.920;2022-08-21T04:57:38;10.60;;;9.63;;
18447;SDS011;9353;50.956;6.920;2022-08-21T05:00:07;9.43;;;8.50;;
18447;SDS011;9353;50.956;6.920;2022-08-21T05:02:35;9.20;;;7.37;;
18447;SDS011;9353;50.956;6.920;2022-08-21T05:05:05;8.23;;;7.53;;
18447;SDS011;9353;50.956;6.920;2022-08-21T05:07:32;8.73;;;7.43;;
18447;SDS011;9353;50.956;6.920;2022-08-21T05:10:00;7.00;;;6.60;;
18447;SDS011;9353;50.956;6.920;2022-08-21T05:12:27;7.53;;;7.03;;
18447;SDS011;9353;50.956;6.920;2022-08-21T05:14:55;7.23;;;6.63;;
18447;SDS011;9353;50.956;6.920;2022-08-21T05:17:22;8.43;;;7.63;;
18447;SDS011;9353;50.956;6.920;2022-08-21T05:19:49;8.00;;;6.73;;
18447;SDS011;9353;50.956;6.920;2022-08-21T05:22:21;7.23;;;6.63;;
18447;SDS011;9353;50.956;6.920;2022-08-21T05:24:49;7.20;;;6.70;;
18447;SDS011;9353;50.956;6.920;2022-08-21T05:27:17;6.63;;;6.20;;
18447;SDS011;9353;50.956;6.920;2022-08-21T05:29:44;8.93;;;6.30;;
18447;SDS011;9353;50.956;6.920;2022-08-21T05:32:11;6.57;;;6.07;;
18447;SDS011;9353;50.956;6.920;2022-08-21T05:34:38;7.63;;;6.77;;
18447;SDS011;9353;50.956;6.920;2022-08-21T05:37:05;8.60;;;6.00;;
18447;SDS011;9353;50.956;6.920;2022-08-21T05:39:34;6.83;;;6.13;;
18447;SDS011;9353;50.956;6.920;2022-08-21T05:42:01;8.47;;;7.80;;
18447;SDS011;9353;50.956;6.920;2022-08-21T05:44:29;6.33;;;5.93;;
18447;SDS011;9353;50.956;6.920;2022-08-21T05:47:01;6.73;;;6.30;;
18447;SDS011;9353;50.956;6.920;2022-08-21T05:49:28;6.63;;;6.23;;
18447;SDS011;9353;50.956;6.920;2022-08-21T05:51:55;8.00;;;6.23;;
18447;SDS011;9353;50.956;6.920;2022-08-21T05:54:22;7.57;;;6.97;;
18447;SDS011;9353;50.956;6.920;2022-08-21T05:56:51;6.53;;;5.87;;
18447;SDS011;9353;50.956;6.920;2022-08-21T05:59:18;12.63;;;6.77;;
18447;SDS011;9353;50.956;6.920;2022-08-21T06:01:45;6.60;;;6.10;;
18447;SDS011;9353;50.956;6.920;2022-08-21T06:04:12;6.63;;;5.87;;
18447;SDS011;9353;50.956;6.920;2022-08-21T06:06:39;6.87;;;6.37;;
18447;SDS011;9353;50.956;6.920;2022-08-21T06:09:06;9.33;;;6.10;;
18447;SDS011;9353;50.956;6.920;2022-08-21T06:11:34;6.20;;;5.60;;
18447;SDS011;9353;50.956;6.920;2022-08-21T06:14:02;6.67;;;6.03;;
18447;SDS011;9353;50.956;6.920;2022-08-21T06:16:31;7.20;;;5.97;;
18447;SDS011;9353;50.956;6.920;2022-08-21T06:18:58;6.10;;;5.60;;
18447;SDS011;9353;50.956;6.920;2022-08-21T06:21:25;5.53;;;5.13;;
18447;SDS011;9353;50.956;6.920;2022-08-21T06:23:52;7.53;;;6.07;;
18447;SDS011;9353;50.956;6.920;2022-08-21T06:26:20;8.17;;;5.03;;
18447;SDS011;9353;50.956;6.920;2022-08-21T06:28:48;5.60;;;5.17;;
18447;SDS011;9353;50.956;6.920;2022-08-21T06:31:17;5.10;;;4.70;;
18447;SDS011;9353;50.956;6.920;2022-08-21T06:33:45;4.67;;;4.33;;
18447;SDS011;9353;50.956;6.920;2022-08-21T06:36:12;7.23;;;5.27;;
18447;SDS011;9353;50.956;6.920;2022-08-21T06:38:40;7.13;;;4.43;;
18447;SDS011;9353;50.956;6.920;2022-08-21T06:41:07;4.70;;;4.30;;
18447;SDS011;9353;50.956;6.920;2022-08-21T06:43:34;4.20;;;3.73;;
18447;SDS011;9353;50.956;6.920;2022-08-21T06:46:01;4.30;;;3.90;;
18447;SDS011;9353;50.956;6.920;2022-08-21T06:48:30;4.63;;;3.60;;
18447;SDS011;9353;50.956;6.920;2022-08-21T06:50:59;6.43;;;4.53;;
18447;SDS011;9353;50.956;6.920;2022-08-21T06:53:26;5.60;;;4.10;;
18447;SDS011;9353;50.956;6.920;2022-08-21T06:55:53;5.03;;;4.40;;
18447;SDS011;9353;50.956;6.920;2022-08-21T06:58:20;3.77;;;3.37;;
18447;SDS011;9353;50.956;6.920;2022-08-21T07:00:49;4.30;;;4.07;;
18447;SDS011;9353;50.956;6.920;2022-08-21T07:03:18;4.07;;;3.77;;
18447;SDS011;9353;50.956;6.920;2022-08-21T07:05:46;4.50;;;4.10;;
18447;SDS011;9353;50.956;6.920;2022-08-21T07:08:13;5.73;;;3.63;;
18447;SDS011;9353;50.956;6.920;2022-08-21T07:10:41;3.73;;;3.47;;
18447;SDS011;9353;50.956;6.920;2022-08-21T07:13:08;5.63;;;3.50;;
18447;SDS011;9353;50.956;6.920;2022-08-21T07:15:36;5.83;;;3.93;;
18447;SDS011;9353;50.956;6.920;2022-08-21T07:18:03;4.73;;;3.50;;
18447;SDS011;9353;50.956;6.920;2022-08-21T07:20:30;4.17;;;3.67;;
18447;SDS011;9353;50.956;6.920;2022-08-21T07:22:59;3.73;;;3.17;;
18447;SDS011;9353;50.956;6.920;2022-08-21T07:25:27;6.47;;;3.20;;
18447;SDS011;9353;50.956;6.920;2022-08-21T07:27:55;3.93;;;3.10;;
18447;SDS011;9353;50.956;6.920;2022-08-21T07:30:22;3.60;;;3.30;;
18447;SDS011;9353;50.956;6.920;2022-08-21T07:32:49;6.00;;;3.40;;
18447;SDS011;9353;50.956;6.920;2022-08-21T07:35:16;3.00;;;2.80;;
18447;SDS011;9353;50.956;6.920;2022-08-21T07:37:44;4.07;;;2.90;;
18447;SDS011;9353;50.956;6.920;2022-08-21T07:40:12;4.40;;;2.97;;
18447;SDS011;9353;50.956;6.920;2022-08-21T07:42:40;5.87;;;2.80;;
18447;SDS011;9353;50.956;6.920;2022-08-21T07:45:07;3.70;;;2.97;;
18447;SDS011;9353;50.956;6.920;2022-08-21T07:47:35;2.67;;;2.30;;
18447;SDS011;9353;50.956;6.920;2022-08-21T07:50:03;4.07;;;2.77;;
18447;SDS011;9353;50.956;6.920;2022-08-21T07:52:30;7.67;;;2.90;;
18447;SDS011;9353;50.956;6.920;2022-08-21T07:54:58;2.97;;;2.60;;
18447;SDS011;9353;50.956;6.920;2022-08-21T07:57:27;3.43;;;2.63;;
18447;SDS011;9353;50.956;6.920;2022-08-21T07:59:54;6.43;;;2.83;;
18447;SDS011;9353;50.956;6.920;2022-08-21T08:02:22;2.57;;;2.23;;
18447;SDS011;9353;50.956;6.920;2022-08-21T08:04:49;4.93;;;3.10;;
18447;SDS011;9353;50.956;6.920;2022-08-21T08:07:16;6.87;;;2.43;;
18447;SDS011;9353;50.956;6.920;2022-08-21T08:09:43;2.00;;;1.90;;
18447;SDS011;9353;50.956;6.920;2022-08-21T08:12:10;5.17;;;2.13;;
18447;SDS011;9353;50.956;6.920;2022-08-21T08:14:39;7.33;;;2.97;;
18447;SDS011;9353;50.956;6.920;2022-08-21T08:17:06;3.13;;;1.90;;
18447;SDS011;9353;50.956;6.920;2022-08-21T08:19:33;6.13;;;2.30;;
18447;SDS011;9353;50.956;6.920;2022-08-21T08:22:00;2.33;;;2.03;;
18447;SDS011;9353;50.956;6.920;2022-08-21T08:24:27;4.13;;;1.83;;
18447;SDS011;9353;50.956;6.920;2022-08-21T08:26:55;2.23;;;2.00;;
18447;SDS011;9353;50.956;6.920;2022-08-21T08:29:22;2.80;;;1.80;;
18447;SDS011;9353;50.956;6.920;2022-08-21T08:31:51;3.57;;;1.80;;
18447;SDS011;9353;50.956;6.920;2022-08-21T08:34:18;4.00;;;2.10;;
18447;SDS011;9353;50.956;6.920;2022-08-21T08:36:47;7.20;;;2.07;;
18447;SDS011;9353;50.956;6.920;2022-08-21T08:39:14;6.50;;;2.07;;
18447;SDS011;9353;50.956;6.920;2022-08-21T08:41:41;4.67;;;1.90;;
18447;SDS011;9353;50.956;6.920;2022-08-21T08:44:10;2.53;;;1.67;;
18447;SDS011;9353;50.956;6.920;2022-08-21T08:46:39;4.43;;;1.93;;
18447;SDS011;9353;50.956;6.920;2022-08-21T08:49:09;3.77;;;2.00;;
18447;SDS011;9353;50.956;6.920;2022-08-21T08:51:39;2.20;;;2.03;;
18447;SDS011;9353;50.956;6.920;2022-08-21T08:54:07;2.00;;;1.70;;
18447;SDS011;9353;50.956;6.920;2022-08-21T08:56:35;5.80;;;2.20;;
18447;SDS011;9353;50.956;6.920;2022-08-21T08:59:05;2.70;;;2.00;;
18447;SDS011;9353;50.956;6.920;2022-08-21T09:01:34;3.20;;;2.30;;
18447;SDS011;9353;50.956;6.920;2022-08-21T09:04:01;2.27;;;1.67;;
18447;SDS011;9353;50.956;6.920;2022-08-21T09:06:34;3.87;;;2.00;;
18447;SDS011;9353;50.956;6.920;2022-08-21T09:09:07;3.47;;;2.00;;
18447;SDS011;9353;50.956;6.920;2022-08-21T09:11:39;5.00;;;2.23;;
18447;SDS011;9353;50.956;6.920;2022-08-21T09:14:09;2.83;;;1.83;;
18447;SDS011;9353;50.956;6.920;2022-08-21T09:16:45;3.43;;;2.03;;
18447;SDS011;9353;50.956;6.920;2022-08-21T09:22:00;3.97;;;2.13;;
18447;SDS011;9353;50.956;6.920;2022-08-21T09:24:32;5.53;;;2.57;;
18447;SDS011;9353;50.956;6.920;2022-08-21T09:27:02;2.20;;;2.00;;
18447;SDS011;9353;50.956;6.920;2022-08-21T09:29:31;2.23;;;1.90;;
18447;SDS011;9353;50.956;6.920;2022-08-21T09:32:00;7.87;;;1.70;;
18447;SDS011;9353;50.956;6.920;2022-08-21T09:34:28;4.87;;;2.07;;
18447;SDS011;9353;50.956;6.920;2022-08-21T09:36:56;6.40;;;2.10;;
18447;SDS011;9353;50.956;6.920;2022-08-21T09:39:26;1.93;;;1.43;;
18447;SDS011;9353;50.956;6.920;2022-08-21T09:41:57;2.07;;;1.87;;
18447;SDS011;9353;50.956;6.920;2022-08-21T09:44:25;4.67;;;2.17;;
18447;SDS011;9353;50.956;6.920;2022-08-21T09:46:53;4.37;;;1.97;;
18447;SDS011;9353;50.956;6.920;2022-08-21T09:49:30;3.13;;;1.60;;
18447;SDS011;9353;50.956;6.920;2022-08-21T09:51:57;3.50;;;1.80;;
18447;SDS011;9353;50.956;6.920;2022-08-21T09:54:28;1.87;;;1.60;;
18447;SDS011;9353;50.956;6.920;2022-08-21T09:56:56;5.90;;;1.97;;
18447;SDS011;9353;50.956;6.920;2022-08-21T09:59:42;4.03;;;2.00;;
18447;SDS011;9353;50.956;6.920;2022-08-21T10:02:24;3.63;;;2.23;;
18447;SDS011;9353;50.956;6.920;2022-08-21T10:04:52;1.87;;;1.57;;
18447;SDS011;9353;50.956;6.920;2022-08-21T10:07:21;2.27;;;1.87;;
18447;SDS011;9353;50.956;6.920;2022-08-21T10:09:59;4.43;;;2.07;;
18447;SDS011;9353;50.956;6.920;2022-08-21T10:12:27;3.47;;;1.53;;
18447;SDS011;9353;50.956;6.920;2022-08-21T10:14:59;5.40;;;1.70;;
18447;SDS011;9353;50.956;6.920;2022-08-21T10:17:30;1.93;;;1.70;;
18447;SDS011;9353;50.956;6.920;2022-08-21T10:20:01;2.17;;;1.50;;
18447;SDS011;9353;50.956;6.920;2022-08-21T10:22:32;3.37;;;1.80;;
18447;SDS011;9353;50.956;6.920;2022-08-21T10:25:05;2.90;;;1.53;;
18447;SDS011;9353;50.956;6.920;2022-08-21T10:27:37;2.20;;;1.10;;
18447;SDS011;9353;50.956;6.920;2022-08-21T10:30:06;2.03;;;1.83;;
18447;SDS011;9353;50.956;6.920;2022-08-21T10:32:39;1.63;;;1.47;;
18447;SDS011;9353;50.956;6.920;2022-08-21T10:35:12;4.47;;;2.23;;
18447;SDS011;9353;50.956;6.920;2022-08-21T10:37:43;2.07;;;1.33;;
18447;SDS011;9353;50.956;6.920;2022-08-21T10:40:15;6.67;;;1.67;;
18447;SDS011;9353;50.956;6.920;2022-08-21T10:42:48;1.93;;;1.33;;
18447;SDS011;9353;50.956;6.920;2022-08-21T10:45:20;2.50;;;1.63;;
18447;SDS011;9353;50.956;6.920;2022-08-21T10:47:52;4.30;;;1.30;;
18447;SDS011;9353;50.956;6.920;2022-08-21T10:50:25;1.83;;;1.63;;
18447;SDS011;9353;50.956;6.920;2022-08-21T10:52:58;2.37;;;1.50;;
18447;SDS011;9353;50.956;6.920;2022-08-21T10:55:32;3.63;;;1.67;;
18447;SDS011;9353;50.956;6.920;2022-08-21T10:58:02;5.17;;;1.40;;
18447;SDS011;9353;50.956;6.920;2022-08-21T11:00:33;2.23;;;1.80;;
18447;SDS011;9353;50.956;6.920;2022-08-21T11:03:02;2.63;;;1.40;;
18447;SDS011;9353;50.956;6.920;2022-08-21T11:05:31;3.67;;;1.80;;
18447;SDS011;9353;50.956;6.920;2022-08-21T11:08:01;2.73;;;1.60;;
18447;SDS011;9353;50.956;6.920;2022-08-21T11:10:32;2.30;;;1.23;;
18447;SDS011;9353;50.956;6.920;2022-08-21T11:13:04;1.50;;;1.40;;
18447;SDS011;9353;50.956;6.920;2022-08-21T11:15:35;3.63;;;1.83;;
18447;SDS011;9353;50.956;6.920;2022-08-21T11:18:09;2.77;;;1.40;;
18447;SDS011;9353;50.956;6.920;2022-08-21T11:20:38;2.75;;;1.98;;
18447;SDS011;9353;50.956;6.920;2022-08-21T11:23:07;3.00;;;1.30;;
18447;SDS011;9353;50.956;6.920;2022-08-21T11:25:36;1.60;;;1.08;;
18447;SDS011;9353;50.956;6.920;2022-08-21T11:28:07;2.35;;;1.30;;
18447;SDS011;9353;50.956;6.920;2022-08-21T11:30:38;4.32;;;1.30;;
18447;SDS011;9353;50.956;6.920;2022-08-21T11:33:11;2.08;;;1.42;;
18447;SDS011;9353;50.956;6.920;2022-08-21T11:35:45;1.30;;;1.20;;
18447;SDS011;9353;50.956;6.920;2022-08-21T11:38:18;3.00;;;1.50;;
18447;SDS011;9353;50.956;6.920;2022-08-21T11:40:52;1.98;;;1.70;;
18447;SDS011;9353;50.956;6.920;2022-08-21T11:43:24;2.80;;;1.65;;
18447;SDS011;9353;50.956;6.920;2022-08-21T11:46:00;2.65;;;1.45;;
18447;SDS011;9353;50.956;6.920;2022-08-21T11:48:36;1.20;;;1.10;;
18447;SDS011;9353;50.956;6.920;2022-08-21T11:51:07;1.30;;;1.10;;
18447;SDS011;9353;50.956;6.920;2022-08-21T11:53:38;1.38;;;1.00;;
18447;SDS011;9353;50.956;6.920;2022-08-21T11:56:07;2.67;;;1.33;;
18447;SDS011;9353;50.956;6.920;2022-08-21T11:58:38;1.75;;;1.60;;
18447;SDS011;9353;50.956;6.920;2022-08-21T12:01:07;4.65;;;1.33;;
18447;SDS011;9353;50.956;6.920;2022-08-21T12:03:36;1.75;;;1.08;;
18447;SDS011;9353;50.956;6.920;2022-08-21T12:06:04;2.97;;;1.60;;
18447;SDS011;9353;50.956;6.920;2022-08-21T12:08:32;1.40;;;1.30;;
18447;SDS011;9353;50.956;6.920;2022-08-21T12:11:01;3.85;;;1.25;;
18447;SDS011;9353;50.956;6.920;2022-08-21T12:13:30;1.75;;;1.42;;
18447;SDS011;9353;50.956;6.920;2022-08-21T12:16:06;1.65;;;1.30;;
18447;SDS011;9353;50.956;6.920;2022-08-21T12:18:33;3.30;;;1.40;;
18447;SDS011;9353;50.956;6.920;2022-08-21T12:21:04;1.42;;;0.93;;
18447;SDS011;9353;50.956;6.920;2022-08-21T12:23:33;4.03;;;1.45;;
18447;SDS011;9353;50.956;6.920;2022-08-21T12:26:18;1.20;;;1.10;;
18447;SDS011;9353;50.956;6.920;2022-08-21T12:28:46;1.80;;;1.20;;
18447;SDS011;9353;50.956;6.920;2022-08-21T12:31:18;4.05;;;1.30;;
18447;SDS011;9353;50.956;6.920;2022-08-21T12:33:49;2.65;;;1.30;;
18447;SDS011;9353;50.956;6.920;2022-08-21T12:36:18;2.60;;;1.30;;
18447;SDS011;9353;50.956;6.920;2022-08-21T12:38:47;1.48;;;1.30;;
18447;SDS011;9353;50.956;6.920;2022-08-21T12:41:17;4.70;;;1.52;;
18447;SDS011;9353;50.956;6.920;2022-08-21T12:43:46;5.38;;;1.35;;
18447;SDS011;9353;50.956;6.920;2022-08-21T12:46:15;1.83;;;1.40;;
18447;SDS011;9353;50.956;6.920;2022-08-21T12:48:45;3.47;;;1.48;;
18447;SDS011;9353;50.956;6.920;2022-08-21T12:51:14;1.95;;;1.20;;
18447;SDS011;9353;50.956;6.920;2022-08-21T12:53:43;2.05;;;1.40;;
18447;SDS011;9353;50.956;6.920;2022-08-21T12:56:12;1.83;;;1.08;;
18447;SDS011;9353;50.956;6.920;2022-08-21T12:58:40;2.88;;;1.20;;
18447;SDS011;9353;50.956;6.920;2022-08-21T13:01:13;1.35;;;1.08;;
18447;SDS011;9353;50.956;6.920;2022-08-21T13:03:44;1.55;;;1.33;;
18447;SDS011;9353;50.956;6.920;2022-08-21T13:06:13;4.57;;;1.60;;
18447;SDS011;9353;50.956;6.920;2022-08-21T13:08:41;2.65;;;1.55;;
18447;SDS011;9353;50.956;6.920;2022-08-21T13:11:09;1.65;;;1.48;;
18447;SDS011;9353;50.956;6.920;2022-08-21T13:13:37;1.73;;;1.58;;
18447;SDS011;9353;50.956;6.920;2022-08-21T13:16:05;3.95;;;1.25;;
18447;SDS011;9353;50.956;6.920;2022-08-21T13:18:34;1.55;;;1.23;;
18447;SDS011;9353;50.956;6.920;2022-08-21T13:21:07;1.42;;;1.17;;
18447;SDS011;9353;50.956;6.920;2022-08-21T13:23:34;3.55;;;1.38;;
18447;SDS011;9353;50.956;6.920;2022-08-21T13:26:11;2.58;;;1.40;;
18447;SDS011;9353;50.956;6.920;2022-08-21T13:28:38;1.80;;;1.23;;
18447;SDS011;9353;50.956;6.920;2022-08-21T13:31:06;2.47;;;1.40;;
18447;SDS011;9353;50.956;6.920;2022-08-21T13:33:35;1.98;;;1.50;;
18447;SDS011;9353;50.956;6.920;2022-08-21T13:36:03;2.38;;;1.63;;
18447;SDS011;9353;50.956;6.920;2022-08-21T13:38:34;4.03;;;1.45;;
18447;SDS011;9353;50.956;6.920;2022-08-21T13:41:02;2.63;;;1.50;;
18447;SDS011;9353;50.956;6.920;2022-08-21T13:43:30;1.05;;;0.90;;
18447;SDS011;9353;50.956;6.920;2022-08-21T13:45:58;4.25;;;1.58;;
18447;SDS011;9353;50.956;6.920;2022-08-21T13:48:28;8.68;;;2.13;;
18447;SDS011;9353;50.956;6.920;2022-08-21T13:50:56;5.75;;;1.88;;
18447;SDS011;9353;50.956;6.920;2022-08-21T13:53:28;6.20;;;1.70;;
18447;SDS011;9353;50.956;6.920;2022-08-21T13:55:57;5.30;;;1.80;;
18447;SDS011;9353;50.956;6.920;2022-08-21T13:58:25;2.20;;;1.40;;
18447;SDS011;9353;50.956;6.920;2022-08-21T14:00:52;1.65;;;1.40;;
18447;SDS011;9353;50.956;6.920;2022-08-21T14:03:25;4.50;;;1.35;;
18447;SDS011;9353;50.956;6.920;2022-08-21T14:05:53;1.40;;;1.27;;
18447;SDS011;9353;50.956;6.920;2022-08-21T14:08:23;1.70;;;1.60;;
18447;SDS011;9353;50.956;6.920;2022-08-21T14:10:52;3.88;;;1.35;;
18447;SDS011;9353;50.956;6.920;2022-08-21T14:13:26;3.85;;;1.98;;
18447;SDS011;9353;50.956;6.920;2022-08-21T14:15:56;2.72;;;1.38;;
18447;SDS011;9353;50.956;6.920;2022-08-21T14:18:23;3.55;;;1.42;;
18447;SDS011;9353;50.956;6.920;2022-08-21T14:20:51;2.22;;;1.40;;
18447;SDS011;9353;50.956;6.920;2022-08-21T14:23:23;2.58;;;1.10;;
18447;SDS011;9353;50.956;6.920;2022-08-21T14:25:51;2.38;;;1.20;;
18447;SDS011;9353;50.956;6.920;2022-08-21T14:28:19;2.63;;;1.55;;
18447;SDS011;9353;50.956;6.920;2022-08-21T14:30:51;1.80;;;1.48;;
18447;SDS011;9353;50.956;6.920;2022-08-21T14:33:20;2.70;;;1.50;;
18447;SDS011;9353;50.956;6.920;2022-08-21T14:35:49;3.97;;;1.17;;
18447;SDS011;9353;50.956;6.920;2022-08-21T14:38:18;5.30;;;1.35;;
18447;SDS011;9353;50.956;6.920;2022-08-21T14:40:48;4.40;;;1.50;;
18447;SDS011;9353;50.956;6.920;2022-08-21T14:43:15;1.90;;;1.40;;
18447;SDS011;9353;50.956;6.920;2022-08-21T14:45:44;2.85;;;1.23;;
18447;SDS011;9353;50.956;6.920;2022-08-21T14:48:12;1.50;;;1.40;;
18447;SDS011;9353;50.956;6.920;2022-08-21T14:50:40;1.85;;;1.50;;
18447;SDS011;9353;50.956;6.920;2022-08-21T14:53:07;1.60;;;1.20;;
18447;SDS011;9353;50.956;6.920;2022-08-21T14:55:34;1.40;;;1.30;;
18447;SDS011;9353;50.956;6.920;2022-08-21T14:58:22;3.97;;;2.13;;
18447;SDS011;9353;50.956;6.920;2022-08-21T15:00:50;1.50;;;1.30;;
18447;SDS011;9353;50.956;6.920;2022-08-21T15:03:19;1.67;;;1.10;;
18447;SDS011;9353;50.956;6.920;2022-08-21T15:05:46;1.48;;;1.33;;
18447;SDS011;9353;50.956;6.920;2022-08-21T15:08:14;1.50;;;1.00;;
18447;SDS011;9353;50.956;6.920;2022-08-21T15:10:41;2.50;;;1.50;;
18447;SDS011;9353;50.956;6.920;2022-08-21T15:13:09;1.55;;;1.42;;